Time;durP1;ratioP1;P1;durP2;ratioP2;P2;SDS_P1;SDS_P2;PMS_P1;PMS_P2;Temp;Humidity;BMP_temperature;BMP_pressure;BME280_temperature;BME280_humidity;BME280_pressure;Samples;Min_cycle;Max_cycle;Signal;HPM_P1;HPM_P2
2021/03/06 00:00:25;;;;;;;11.98;2.42;;;22.50;97.90;;;;;;6330496;22;20055;-66
2021/03/06 00:02:53;;;;;;;10.20;1.85;;;22.60;97.50;;;;;;6328127;22;20011;-67
2021/03/06 00:05:23;;;;;;;12.07;1.77;;;22.40;97.50;;;;;;6326018;22;20010;-67
2021/03/06 00:07:50;;;;;;;11.82;2.15;;;22.30;97.40;;;;;;6329868;22;20025;-67
2021/03/06 00:10:18;;;;;;;9.05;1.50;;;22.20;97.10;;;;;;6329917;22;19983;-66
2021/03/06 00:12:50;;;;;;;12.20;2.22;;;22.50;97.50;;;;;;6331110;22;20007;-67
2021/03/06 00:15:24;;;;;;;6.25;1.55;;;22.70;96.00;;;;;;6329285;22;20034;-66
2021/03/06 00:17:52;;;;;;;10.57;1.73;;;22.50;96.90;;;;;;6329860;22;19995;-67
2021/03/06 00:20:20;;;;;;;8.68;1.70;;;22.60;96.80;;;;;;6328510;22;19995;-66
2021/03/06 00:22:50;;;;;;;11.35;2.20;;;22.80;97.60;;;;;;6329684;22;20011;-66
2021/03/06 00:25:19;;;;;;;10.35;2.40;;;23.10;98.40;;;;;;6352718;22;19995;-66
2021/03/06 00:27:46;;;;;;;8.60;1.77;;;23.40;96.30;;;;;;6332145;22;20002;-66
2021/03/06 00:30:16;;;;;;;9.60;2.03;;;23.20;96.70;;;;;;6331644;22;19996;-66
2021/03/06 00:32:43;;;;;;;8.50;1.33;;;23.00;97.20;;;;;;6330016;22;20058;-66
2021/03/06 00:35:12;;;;;;;8.00;1.45;;;23.30;97.60;;;;;;6351287;22;20003;-66
2021/03/06 00:37:40;;;;;;;11.70;2.08;;;23.30;96.00;;;;;;6323344;22;20004;-65
2021/03/06 00:40:09;;;;;;;12.43;1.80;;;23.20;96.40;;;;;;6325677;22;20393;-66
2021/03/06 00:42:37;;;;;;;9.80;1.90;;;23.40;97.10;;;;;;6333148;22;19987;-66
2021/03/06 00:45:07;;;;;;;8.27;2.20;;;24.10;97.20;;;;;;6326535;22;19999;-65
2021/03/06 00:47:34;;;;;;;11.07;1.35;;;24.00;96.00;;;;;;6328229;22;19999;-66
2021/03/06 00:50:02;;;;;;;10.63;1.40;;;23.80;96.20;;;;;;6325128;22;19999;-65
2021/03/06 00:52:29;;;;;;;6.43;1.35;;;24.00;94.80;;;;;;6322789;22;20011;-66
2021/03/06 00:54:57;;;;;;;9.02;1.70;;;23.90;94.40;;;;;;6333718;22;19991;-65
2021/03/06 00:57:24;;;;;;;12.30;2.25;;;23.90;94.10;;;;;;6337305;22;20013;-65
2021/03/06 00:59:51;;;;;;;7.85;1.67;;;24.30;94.20;;;;;;6335742;22;19980;-65
2021/03/06 01:02:19;;;;;;;14.40;1.70;;;24.20;94.90;;;;;;6335454;22;20014;-66
2021/03/06 01:04:46;;;;;;;8.82;1.05;;;24.00;95.00;;;;;;6330367;22;20035;-65
2021/03/06 01:07:13;;;;;;;9.43;1.38;;;23.90;94.40;;;;;;6332738;22;19999;-65
2021/03/06 01:09:40;;;;;;;7.68;1.50;;;24.10;94.80;;;;;;6328100;22;20003;-65
2021/03/06 01:12:08;;;;;;;9.43;1.77;;;23.60;93.50;;;;;;6349143;22;20000;-65
2021/03/06 01:14:35;;;;;;;12.52;1.27;;;22.80;94.50;;;;;;6328620;22;19995;-65
2021/03/06 01:17:02;;;;;;;12.82;2.13;;;22.50;94.70;;;;;;6355525;22;20007;-65
2021/03/06 01:19:30;;;;;;;16.60;1.60;;;22.40;94.70;;;;;;6329279;22;19987;-65
2021/03/06 01:21:57;;;;;;;5.90;1.55;;;22.40;95.40;;;;;;6332006;22;20025;-65
2021/03/06 01:24:24;;;;;;;9.02;1.55;;;22.50;94.40;;;;;;6331444;22;20015;-65
2021/03/06 01:26:51;;;;;;;10.38;1.92;;;22.70;94.70;;;;;;6334284;22;19996;-65
2021/03/06 01:29:19;;;;;;;7.82;2.17;;;22.50;95.40;;;;;;6334590;22;19999;-65
2021/03/06 01:31:47;;;;;;;7.00;1.25;;;22.80;95.60;;;;;;6335750;22;19993;-65
2021/03/06 01:34:14;;;;;;;9.57;1.58;;;22.70;95.10;;;;;;6326784;22;20322;-65
2021/03/06 01:36:41;;;;;;;6.18;1.30;;;22.60;94.80;;;;;;6315670;22;19995;-65
2021/03/06 01:39:08;;;;;;;10.00;1.63;;;22.60;94.40;;;;;;6312402;22;20004;-66
2021/03/06 01:41:36;;;;;;;11.50;1.83;;;22.60;95.80;;;;;;6310545;22;19999;-67
2021/03/06 01:44:03;;;;;;;8.63;1.75;;;22.90;94.70;;;;;;6313960;22;19999;-65
2021/03/06 01:46:31;;;;;;;6.40;1.25;;;22.80;94.50;;;;;;6316007;22;20007;-66
2021/03/06 01:48:58;;;;;;;6.28;0.95;;;22.60;95.60;;;;;;6310169;22;20003;-66
2021/03/06 01:51:25;;;;;;;8.00;1.85;;;22.50;95.30;;;;;;6313912;22;20044;-71
2021/03/06 01:53:53;;;;;;;4.72;1.40;;;22.50;94.80;;;;;;6338392;22;20425;-71
2021/03/06 01:56:21;;;;;;;8.25;1.40;;;22.40;95.30;;;;;;6338347;22;19999;-70
2021/03/06 01:58:48;;;;;;;8.65;1.20;;;22.50;95.70;;;;;;6337558;22;19994;-71
2021/03/06 02:01:16;;;;;;;10.88;1.65;;;22.60;96.20;;;;;;6338436;22;20429;-66
2021/03/06 02:03:43;;;;;;;6.13;1.30;;;22.90;94.80;;;;;;6337414;22;20057;-65
2021/03/06 02:06:11;;;;;;;6.75;1.35;;;23.30;95.70;;;;;;6338500;22;20007;-66
2021/03/06 02:08:38;;;;;;;8.63;1.48;;;23.30;94.60;;;;;;6341713;22;19995;-66
2021/03/06 02:11:05;;;;;;;5.57;1.27;;;23.60;94.40;;;;;;6352844;22;19995;-65
2021/03/06 02:14:05;;;;;;;5.22;1.00;;;23.80;93.80;;;;;;6360641;22;20022;-66
2021/03/06 02:16:50;;;;;;;8.02;1.95;;;24.10;94.10;;;;;;6320481;22;20058;-66
2021/03/06 02:19:49;;;;;;;9.20;1.70;;;23.80;94.60;;;;;;6346565;22;20014;-66
2021/03/06 02:22:53;;;;;;;6.78;1.00;;;23.80;94.80;;;;;;6350667;22;20034;-66
2021/03/06 02:25:35;;;;;;;9.73;1.20;;;24.00;93.20;;;;;;6345351;22;20014;-66
2021/03/06 02:28:33;;;;;;;8.27;1.10;;;23.60;94.40;;;;;;6346632;22;19999;-66
2021/03/06 02:31:03;;;;;;;8.88;0.98;;;23.70;93.30;;;;;;6343382;22;20070;-66
2021/03/06 02:33:35;;;;;;;7.10;1.38;;;24.00;93.30;;;;;;6336363;22;20431;-66
2021/03/06 02:36:09;;;;;;;7.22;1.08;;;24.10;92.80;;;;;;6339777;22;20003;-66
2021/03/06 02:38:40;;;;;;;5.35;1.20;;;24.50;92.30;;;;;;6334862;22;20052;-67
2021/03/06 02:41:11;;;;;;;8.52;1.15;;;24.50;91.30;;;;;;6338332;22;19998;-66
2021/03/06 02:43:38;;;;;;;8.02;1.33;;;24.70;91.20;;;;;;6338740;22;20023;-65
2021/03/06 02:46:07;;;;;;;5.32;1.35;;;24.60;90.40;;;;;;6340206;22;20451;-66
2021/03/06 02:48:37;;;;;;;7.18;1.10;;;24.10;91.90;;;;;;6341110;22;19998;-65
2021/03/06 02:51:05;;;;;;;5.35;1.30;;;24.00;91.70;;;;;;6335314;22;20003;-65
2021/03/06 02:53:32;;;;;;;7.78;1.05;;;23.90;91.80;;;;;;6308455;22;20091;-65
2021/03/06 02:56:00;;;;;;;6.00;0.98;;;23.50;92.40;;;;;;6306943;22;20106;-65
2021/03/06 02:58:46;;;;;;;7.78;1.48;;;23.30;91.50;;;;;;6338124;22;20007;-66
2021/03/06 03:01:30;;;;;;;6.50;0.95;;;23.30;93.80;;;;;;6334698;22;20003;-66
2021/03/06 03:04:38;;;;;;;5.20;1.30;;;23.40;92.90;;;;;;6309537;22;20003;-65
2021/03/06 03:07:22;;;;;;;7.78;1.20;;;23.50;92.60;;;;;;6308817;22;20018;-66
2021/03/06 03:09:56;;;;;;;8.23;1.40;;;23.50;92.80;;;;;;6316638;22;20025;-65
2021/03/06 03:12:25;;;;;;;6.38;1.55;;;24.20;91.50;;;;;;6322482;22;19999;-66
2021/03/06 03:15:10;;;;;;;5.72;1.20;;;24.50;92.70;;;;;;6316561;22;20003;-66
2021/03/06 03:17:43;;;;;;;8.85;1.40;;;24.20;91.00;;;;;;6320232;22;19995;-66
2021/03/06 03:20:31;;;;;;;5.43;1.05;;;24.20;91.20;;;;;;6319143;22;19996;-65
2021/03/06 03:23:51;;;;;;;6.93;0.90;;;24.30;91.60;;;;;;6315190;22;19999;-66
2021/03/06 03:26:20;;;;;;;6.70;1.60;;;24.40;91.10;;;;;;6303574;22;20015;-65
2021/03/06 03:28:50;;;;;;;4.97;1.10;;;24.10;94.80;;;;;;6313258;22;20382;-65
2021/03/06 03:31:19;;;;;;;7.45;1.67;;;24.00;91.40;;;;;;6336347;22;20015;-65
2021/03/06 03:33:50;;;;;;;7.20;1.50;;;23.70;91.20;;;;;;6320779;22;20056;-66
2021/03/06 03:36:18;;;;;;;4.85;1.25;;;23.90;91.50;;;;;;6322564;22;20014;-66
2021/03/06 03:38:49;;;;;;;8.38;1.38;;;24.00;91.10;;;;;;6318036;22;20071;-66
2021/03/06 03:41:17;;;;;;;5.25;0.95;;;23.80;91.40;;;;;;6324742;22;20095;-66
2021/03/06 03:43:44;;;;;;;6.80;1.48;;;24.10;91.40;;;;;;6314572;22;20003;-66
2021/03/06 03:46:12;;;;;;;5.78;0.68;;;24.00;90.90;;;;;;6313758;22;20003;-65
2021/03/06 03:48:42;;;;;;;7.72;1.50;;;23.50;91.00;;;;;;6317561;22;20007;-66
2021/03/06 03:51:11;;;;;;;6.03;1.00;;;23.60;91.40;;;;;;6319568;22;19996;-66
2021/03/06 03:53:39;;;;;;;4.35;1.08;;;23.60;91.90;;;;;;6315923;22;20011;-66
2021/03/06 03:56:08;;;;;;;3.65;0.77;;;23.60;91.30;;;;;;6318255;22;20008;-67
2021/03/06 03:58:35;;;;;;;6.82;1.25;;;23.50;91.40;;;;;;6320769;22;20003;-66
2021/03/06 04:01:03;;;;;;;4.45;0.85;;;23.50;91.60;;;;;;6320156;22;20003;-66
2021/03/06 04:03:31;;;;;;;5.00;1.15;;;23.50;91.20;;;;;;6318461;22;19999;-66
2021/03/06 04:06:00;;;;;;;6.05;0.82;;;23.30;91.40;;;;;;6314544;22;20011;-65
2021/03/06 04:08:27;;;;;;;5.60;1.38;;;23.30;91.60;;;;;;6313645;22;20015;-66
2021/03/06 04:10:55;;;;;;;8.65;1.15;;;23.30;91.40;;;;;;6318017;22;19995;-66
2021/03/06 04:13:22;;;;;;;3.50;0.88;;;23.00;92.10;;;;;;6321362;22;20007;-67
2021/03/06 04:15:49;;;;;;;5.63;0.90;;;23.20;92.20;;;;;;6313948;22;20002;-66
2021/03/06 04:18:17;;;;;;;8.35;1.13;;;23.20;91.80;;;;;;6315580;22;20074;-66
2021/03/06 04:20:44;;;;;;;3.28;0.70;;;23.20;91.80;;;;;;6318673;22;20078;-66
2021/03/06 04:23:11;;;;;;;7.15;1.02;;;23.50;93.20;;;;;;6318402;22;19999;-67
2021/03/06 04:25:39;;;;;;;5.85;1.25;;;23.20;91.80;;;;;;6352850;22;20027;-65
2021/03/06 04:28:06;;;;;;;7.68;1.30;;;23.30;92.40;;;;;;6326676;22;20004;-66
2021/03/06 04:30:33;;;;;;;3.45;0.90;;;23.10;93.40;;;;;;6325141;22;19999;-66
2021/03/06 04:33:01;;;;;;;6.18;1.48;;;23.20;92.80;;;;;;6328234;22;20007;-66
2021/03/06 04:35:28;;;;;;;7.60;1.23;;;23.30;92.80;;;;;;6321567;22;19999;-67
2021/03/06 04:37:55;;;;;;;7.13;1.10;;;23.40;93.10;;;;;;6321717;22;19995;-66
2021/03/06 04:40:22;;;;;;;7.50;0.95;;;23.50;93.20;;;;;;6315777;22;20078;-66
2021/03/06 04:42:50;;;;;;;7.22;1.20;;;23.20;93.40;;;;;;6316756;22;20048;-66
2021/03/06 04:45:17;;;;;;;7.72;1.20;;;22.90;93.70;;;;;;6316413;22;20014;-67
2021/03/06 04:47:46;;;;;;;6.60;1.23;;;22.80;93.80;;;;;;6322663;22;20021;-66
2021/03/06 04:50:14;;;;;;;6.43;1.58;;;22.80;93.70;;;;;;6322152;22;19995;-66
2021/03/06 04:52:41;;;;;;;5.03;0.88;;;22.90;93.20;;;;;;6349441;22;20018;-66
2021/03/06 04:55:09;;;;;;;8.30;1.48;;;22.80;93.40;;;;;;6328072;22;20025;-66
2021/03/06 04:57:37;;;;;;;4.63;1.05;;;22.80;93.10;;;;;;6322940;22;20021;-66
2021/03/06 05:00:07;;;;;;;7.85;0.85;;;22.70;93.30;;;;;;6326027;22;20025;-67
2021/03/06 05:02:35;;;;;;;9.15;1.25;;;22.70;93.30;;;;;;6326718;22;20443;-66
2021/03/06 05:05:07;;;;;;;5.97;0.77;;;22.50;93.60;;;;;;6327018;22;19999;-67
2021/03/06 05:07:34;;;;;;;6.38;1.13;;;22.60;93.50;;;;;;6328598;22;20019;-66
2021/03/06 05:10:02;;;;;;;3.33;1.17;;;22.60;93.30;;;;;;6328384;22;20003;-66
2021/03/06 05:12:29;;;;;;;5.80;0.98;;;22.50;93.40;;;;;;6325618;22;20006;-66
2021/03/06 05:14:57;;;;;;;5.25;1.05;;;22.40;93.40;;;;;;6328690;22;19998;-65
2021/03/06 05:17:24;;;;;;;5.70;0.98;;;22.50;93.50;;;;;;6330896;22;20007;-66
2021/03/06 05:19:52;;;;;;;5.50;0.75;;;22.70;95.20;;;;;;6340103;22;20011;-66
2021/03/06 05:22:19;;;;;;;6.35;0.77;;;22.70;93.30;;;;;;6320463;22;20002;-65
2021/03/06 05:24:48;;;;;;;3.33;0.68;;;22.70;93.70;;;;;;6321314;22;20002;-65
2021/03/06 05:27:16;;;;;;;10.02;1.63;;;22.60;94.00;;;;;;6316836;22;20004;-66
2021/03/06 05:29:43;;;;;;;5.30;0.90;;;22.50;93.60;;;;;;6316404;22;20425;-66
2021/03/06 05:32:11;;;;;;;4.38;0.80;;;22.50;93.50;;;;;;6317927;22;20003;-65
2021/03/06 05:34:38;;;;;;;6.53;1.58;;;22.50;94.20;;;;;;6317495;22;20010;-66
2021/03/06 05:37:05;;;;;;;5.28;0.75;;;22.50;93.70;;;;;;6319627;22;20038;-66
2021/03/06 05:39:32;;;;;;;6.25;1.08;;;22.40;94.40;;;;;;6330897;22;19999;-66
2021/03/06 05:42:00;;;;;;;8.20;1.75;;;22.40;95.30;;;;;;6334656;22;20009;-64
2021/03/06 05:44:28;;;;;;;5.65;0.90;;;22.60;95.00;;;;;;6333866;22;19999;-64
2021/03/06 05:46:57;;;;;;;5.78;0.90;;;22.70;94.70;;;;;;6334439;22;20071;-64
2021/03/06 05:49:24;;;;;;;5.05;1.02;;;22.60;94.60;;;;;;6335005;22;19998;-64
2021/03/06 05:51:53;;;;;;;3.20;0.60;;;22.20;95.00;;;;;;6360459;22;20003;-64
2021/03/06 05:54:25;;;;;;;7.45;1.15;;;22.00;95.90;;;;;;6334575;22;20003;-63
2021/03/06 05:56:53;;;;;;;6.18;1.13;;;21.70;96.60;;;;;;6335615;22;19992;-64
2021/03/06 05:59:23;;;;;;;6.22;1.10;;;21.80;96.70;;;;;;6335176;22;20017;-64
2021/03/06 06:01:50;;;;;;;11.05;2.10;;;21.90;96.40;;;;;;6335478;22;20010;-64
2021/03/06 06:04:18;;;;;;;6.70;1.20;;;22.10;96.00;;;;;;6335217;22;20006;-64
2021/03/06 06:06:48;;;;;;;8.43;1.73;;;22.30;95.80;;;;;;6335373;22;20023;-65
2021/03/06 06:09:16;;;;;;;6.70;1.88;;;22.20;96.10;;;;;;6335017;22;20003;-64
2021/03/06 06:11:43;;;;;;;5.13;0.93;;;22.00;96.70;;;;;;6334530;22;19987;-63
2021/03/06 06:14:10;;;;;;;6.72;0.93;;;22.10;96.90;;;;;;6334292;22;19992;-64
2021/03/06 06:16:37;;;;;;;7.50;1.13;;;22.10;96.70;;;;;;6335185;22;19991;-64
2021/03/06 06:19:07;;;;;;;6.32;1.23;;;22.10;96.10;;;;;;6334978;22;19998;-65
2021/03/06 06:21:44;;;;;;;8.45;1.27;;;22.30;95.90;;;;;;6335385;22;19991;-64
2021/03/06 06:24:15;;;;;;;5.60;1.05;;;22.30;94.80;;;;;;6334790;22;20011;-65
2021/03/06 06:26:53;;;;;;;3.97;0.80;;;22.40;95.60;;;;;;6334554;22;19999;-64
2021/03/06 06:29:39;;;;;;;7.00;2.47;;;22.20;96.30;;;;;;6359125;22;20022;-64
2021/03/06 06:32:18;;;;;;;8.00;1.42;;;22.10;95.90;;;;;;6334435;22;20021;-64
2021/03/06 06:35:05;;;;;;;3.53;0.63;;;21.80;96.50;;;;;;6334942;22;19983;-63
2021/03/06 06:37:33;;;;;;;5.95;1.00;;;21.60;96.60;;;;;;6335057;22;20035;-64
2021/03/06 06:40:17;;;;;;;8.63;1.55;;;21.50;96.70;;;;;;6335015;22;19999;-65
2021/03/06 06:42:45;;;;;;;7.50;1.55;;;21.50;97.00;;;;;;6355326;22;19999;-66
2021/03/06 06:45:15;;;;;;;5.70;0.70;;;21.40;96.80;;;;;;6347599;22;20007;-66
2021/03/06 06:47:46;;;;;;;6.50;1.30;;;21.20;97.50;;;;;;6321768;22;19999;-66
2021/03/06 06:50:15;;;;;;;5.15;1.10;;;21.30;98.00;;;;;;6324388;22;20006;-67
2021/03/06 06:52:44;;;;;;;8.95;1.35;;;21.40;97.80;;;;;;6350079;22;20098;-68
2021/03/06 06:55:14;;;;;;;7.68;1.17;;;21.30;98.00;;;;;;6332555;22;20000;-66
2021/03/06 06:57:57;;;;;;;9.82;1.20;;;21.50;97.90;;;;;;6335307;22;19987;-66
2021/03/06 07:00:28;;;;;;;5.43;1.30;;;21.60;98.10;;;;;;6334880;22;19995;-66
2021/03/06 07:03:03;;;;;;;6.35;1.33;;;21.70;98.00;;;;;;6334845;22;19984;-66
2021/03/06 07:05:35;;;;;;;6.32;1.38;;;21.70;98.20;;;;;;6333473;22;19999;-65
2021/03/06 07:08:06;;;;;;;9.00;1.05;;;21.60;98.70;;;;;;6334344;22;19987;-65
2021/03/06 07:10:41;;;;;;;13.55;2.42;;;21.60;99.50;;;;;;6334244;22;20030;-67
2021/03/06 07:13:14;;;;;;;6.55;1.45;;;21.50;99.90;;;;;;6335119;22;19983;-67
2021/03/06 07:15:43;;;;;;;11.27;1.98;;;21.50;99.90;;;;;;6334591;22;20030;-67
2021/03/06 07:18:20;;;;;;;11.30;1.83;;;21.40;99.90;;;;;;6335013;22;19987;-66
2021/03/06 07:20:49;;;;;;;11.00;1.67;;;21.30;99.90;;;;;;6335203;22;19991;-65
2021/03/06 07:23:24;;;;;;;10.75;2.03;;;21.20;99.90;;;;;;6334318;22;20141;-65
2021/03/06 07:25:56;;;;;;;8.20;0.93;;;21.10;99.90;;;;;;6334822;22;20071;-66
2021/03/06 07:28:24;;;;;;;12.60;1.85;;;21.00;99.90;;;;;;6334820;22;20063;-66
2021/03/06 07:30:52;;;;;;;9.95;1.38;;;20.80;99.90;;;;;;6360055;22;20045;-66
2021/03/06 07:33:22;;;;;;;10.23;1.63;;;20.80;99.90;;;;;;6334770;22;19983;-66
2021/03/06 07:35:51;;;;;;;7.93;1.52;;;20.70;99.90;;;;;;6360813;22;20013;-66
2021/03/06 07:38:19;;;;;;;7.20;1.33;;;20.70;99.90;;;;;;6360492;22;19988;-66
2021/03/06 07:40:59;;;;;;;8.10;1.20;;;20.80;99.90;;;;;;6335568;22;20036;-66
2021/03/06 07:43:37;;;;;;;7.88;1.00;;;20.90;99.90;;;;;;6335103;22;19991;-66
2021/03/06 07:46:09;;;;;;;8.60;1.50;;;20.80;99.90;;;;;;6334294;22;20002;-66
2021/03/06 07:48:42;;;;;;;9.20;1.98;;;20.70;99.90;;;;;;6359119;22;19991;-66
2021/03/06 07:51:10;;;;;;;7.05;1.70;;;20.70;99.90;;;;;;6335060;22;20031;-66
2021/03/06 07:56:09;;;;;;;8.40;1.77;;;20.70;99.90;;;;;;6338259;22;20023;-70
2021/03/06 07:58:49;;;;;;;9.73;2.35;;;20.70;99.90;;;;;;6335704;22;20003;-70
2021/03/06 08:01:29;;;;;;;7.53;3.33;;;20.60;99.90;;;;;;6337492;22;20413;-70
2021/03/06 08:03:57;;;;;;;11.90;1.95;;;20.50;99.90;;;;;;6337356;22;20380;-70
2021/03/06 08:06:27;;;;;;;5.65;1.40;;;20.60;99.90;;;;;;6337309;22;20367;-70
2021/03/06 08:09:03;;;;;;;10.50;1.80;;;20.60;99.90;;;;;;6337670;22;19994;-70
2021/03/06 08:11:38;;;;;;;10.02;2.70;;;20.50;99.90;;;;;;6337928;22;20440;-70
2021/03/06 08:14:25;;;;;;;10.63;2.35;;;20.50;99.90;;;;;;6337072;22;20469;-70
2021/03/06 08:16:53;;;;;;;14.30;2.13;;;20.40;99.90;;;;;;6337659;22;20003;-70
2021/03/06 08:19:21;;;;;;;14.48;4.93;;;20.40;99.90;;;;;;6336364;22;20002;-70
2021/03/06 08:21:53;;;;;;;11.68;7.55;;;20.40;99.90;;;;;;6338008;22;20052;-70
2021/03/06 08:24:27;;;;;;;14.93;8.02;;;20.40;99.90;;;;;;6336228;22;20010;-70
2021/03/06 08:27:03;;;;;;;13.30;5.18;;;20.40;99.90;;;;;;6337392;22;20003;-70
2021/03/06 08:29:41;;;;;;;10.80;2.75;;;20.30;99.90;;;;;;6337044;22;20069;-70
2021/03/06 08:32:15;;;;;;;26.05;15.57;;;20.20;99.90;;;;;;6337571;22;20010;-70
2021/03/06 08:34:59;;;;;;;10.80;3.17;;;20.30;99.90;;;;;;6337363;22;19995;-70
2021/03/06 08:37:30;;;;;;;11.48;2.70;;;20.30;99.90;;;;;;6337486;22;20030;-70
2021/03/06 08:40:07;;;;;;;9.82;1.90;;;20.30;99.90;;;;;;6337498;22;19999;-70
2021/03/06 08:42:43;;;;;;;10.30;2.10;;;20.30;99.90;;;;;;6339573;22;20074;-70
2021/03/06 08:45:14;;;;;;;12.60;3.38;;;20.20;99.90;;;;;;6338840;22;20008;-70
2021/03/06 08:47:43;;;;;;;8.52;2.42;;;20.30;99.90;;;;;;6338936;22;20009;-70
2021/03/06 08:50:14;;;;;;;6.78;1.38;;;20.30;99.90;;;;;;6338528;22;20009;-70
2021/03/06 08:52:52;;;;;;;10.32;1.55;;;20.20;99.90;;;;;;6313703;22;20053;-70
2021/03/06 08:55:23;;;;;;;10.30;1.75;;;20.20;99.90;;;;;;6306599;22;20090;-70
2021/03/06 08:57:50;;;;;;;11.02;3.05;;;20.10;99.90;;;;;;6332325;22;20007;-70
2021/03/06 09:00:21;;;;;;;10.10;1.40;;;20.10;99.90;;;;;;6308002;22;20428;-70
2021/03/06 09:02:49;;;;;;;6.60;1.60;;;20.10;99.90;;;;;;6307439;22;20027;-70
2021/03/06 09:05:47;;;;;;;8.48;1.70;;;20.00;99.90;;;;;;6307507;22;20008;-70
2021/03/06 09:08:18;;;;;;;8.73;1.60;;;20.00;99.90;;;;;;6304086;22;20082;-70
2021/03/06 09:10:46;;;;;;;14.07;2.17;;;19.90;99.90;;;;;;6307516;22;20329;-70
2021/03/06 09:13:19;;;;;;;8.27;2.47;;;19.80;99.90;;;;;;6307148;22;20526;-70
2021/03/06 09:15:52;;;;;;;10.25;2.25;;;19.90;99.90;;;;;;6330258;22;20026;-70
2021/03/06 09:18:25;;;;;;;8.70;2.17;;;19.80;99.90;;;;;;6306976;22;20137;-70
2021/03/06 09:21:01;;;;;;;13.65;2.95;;;19.90;99.90;;;;;;6305407;22;20003;-70
2021/03/06 09:23:28;;;;;;;10.13;2.95;;;19.80;99.90;;;;;;6306625;22;20023;-70
2021/03/06 09:26:02;;;;;;;7.82;2.17;;;19.90;99.90;;;;;;6307262;22;20018;-70
2021/03/06 09:28:32;;;;;;;10.88;1.85;;;19.90;99.90;;;;;;6307071;22;20003;-70
2021/03/06 09:31:03;;;;;;;8.68;2.22;;;19.90;99.90;;;;;;6307879;22;20441;-70
2021/03/06 09:33:33;;;;;;;11.45;2.78;;;19.90;99.90;;;;;;6331727;22;20003;-70
2021/03/06 09:36:03;;;;;;;10.75;2.22;;;20.00;99.90;;;;;;6307730;22;20039;-70
2021/03/06 09:38:31;;;;;;;9.40;2.00;;;19.90;99.90;;;;;;6306400;22;19999;-70
2021/03/06 09:40:59;;;;;;;5.13;2.28;;;19.90;99.90;;;;;;6306675;22;20011;-70
2021/03/06 09:43:29;;;;;;;9.02;3.38;;;19.90;99.90;;;;;;6307342;22;20394;-70
2021/03/06 09:45:58;;;;;;;9.00;2.40;;;19.90;99.90;;;;;;6307969;22;20013;-70
2021/03/06 09:48:26;;;;;;;11.73;2.55;;;19.90;99.90;;;;;;6306615;22;20030;-70
2021/03/06 09:50:57;;;;;;;12.75;2.63;;;19.90;99.90;;;;;;6307305;22;20004;-70
2021/03/06 09:53:26;;;;;;;9.07;3.58;;;19.90;99.90;;;;;;6307031;22;20052;-70
2021/03/06 09:56:12;;;;;;;15.32;2.30;;;19.80;99.90;;;;;;6307419;22;20346;-70
2021/03/06 09:58:42;;;;;;;14.10;2.20;;;19.80;99.90;;;;;;6307063;22;20007;-70
2021/03/06 10:01:21;;;;;;;7.72;2.13;;;19.80;99.90;;;;;;6307482;22;20337;-70
2021/03/06 10:03:50;;;;;;;11.15;2.03;;;19.90;99.90;;;;;;6306581;22;20007;-70
2021/03/06 10:06:22;;;;;;;9.82;2.38;;;19.90;99.90;;;;;;6331214;22;20090;-70
2021/03/06 10:09:00;;;;;;;11.75;3.17;;;19.80;99.90;;;;;;6306711;22;19996;-70
2021/03/06 10:11:33;;;;;;;15.90;2.80;;;19.80;99.90;;;;;;6307719;22;20457;-71
2021/03/06 10:14:02;;;;;;;8.23;2.00;;;19.70;99.90;;;;;;6306599;22;20398;-71
2021/03/06 10:16:29;;;;;;;9.35;2.58;;;19.70;99.90;;;;;;6304058;22;20003;-70
2021/03/06 10:19:03;;;;;;;9.80;2.90;;;19.70;99.90;;;;;;6305410;22;20007;-70
2021/03/06 10:21:30;;;;;;;10.80;3.13;;;19.70;99.90;;;;;;6307388;22;20413;-70
2021/03/06 10:24:12;;;;;;;8.90;2.88;;;19.70;99.90;;;;;;6306440;22;20418;-70
2021/03/06 10:26:39;;;;;;;8.75;2.63;;;19.70;99.90;;;;;;6307308;22;20425;-70
2021/03/06 10:29:21;;;;;;;9.45;2.15;;;19.60;99.90;;;;;;6331065;22;20012;-70
2021/03/06 10:32:13;;;;;;;12.23;3.20;;;19.70;99.90;;;;;;6307278;22;20006;-70
2021/03/06 10:34:43;;;;;;;5.60;2.00;;;19.70;99.90;;;;;;6306455;22;20029;-70
2021/03/06 10:37:20;;;;;;;11.77;3.17;;;19.70;99.90;;;;;;6307753;22;20003;-70
2021/03/06 10:39:53;;;;;;;12.68;3.38;;;19.70;99.90;;;;;;6307112;22;20070;-70
2021/03/06 10:42:24;;;;;;;9.70;3.13;;;19.70;99.90;;;;;;6306930;22;20053;-70
2021/03/06 10:44:52;;;;;;;6.90;1.45;;;19.70;99.90;;;;;;6306511;22;20225;-70
2021/03/06 10:47:21;;;;;;;11.73;4.30;;;19.60;99.90;;;;;;6307301;22;20489;-70
2021/03/06 10:49:49;;;;;;;10.52;2.63;;;19.60;99.90;;;;;;6306724;22;20010;-70
2021/03/06 10:52:30;;;;;;;9.52;2.63;;;19.70;99.90;;;;;;6307289;22;20036;-70
2021/03/06 10:54:59;;;;;;;11.93;3.80;;;19.60;99.90;;;;;;6306059;22;20022;-70
2021/03/06 10:57:27;;;;;;;11.40;3.35;;;19.60;99.90;;;;;;6306346;22;19995;-70
2021/03/06 10:59:55;;;;;;;13.10;4.50;;;19.70;99.90;;;;;;6306373;22;19999;-70
2021/03/06 11:02:32;;;;;;;10.35;3.95;;;19.80;99.90;;;;;;6306330;22;20007;-70
2021/03/06 11:05:22;;;;;;;8.27;2.95;;;19.80;99.90;;;;;;6305952;22;19995;-70
2021/03/06 11:07:49;;;;;;;9.40;3.38;;;19.80;99.90;;;;;;6307003;22;19999;-70
2021/03/06 11:10:18;;;;;;;12.02;3.45;;;19.80;99.90;;;;;;6304549;22;20019;-70
2021/03/06 11:13:00;;;;;;;10.88;3.28;;;19.80;99.90;;;;;;6307031;22;20021;-70
2021/03/06 11:15:29;;;;;;;7.30;2.58;;;19.80;99.90;;;;;;6306384;22;20421;-70
2021/03/06 11:18:00;;;;;;;9.30;2.33;;;19.80;99.90;;;;;;6306848;22;20002;-70
2021/03/06 11:20:30;;;;;;;12.45;2.17;;;19.80;99.90;;;;;;6306152;22;20420;-70
2021/03/06 11:23:01;;;;;;;7.47;1.80;;;19.80;99.90;;;;;;6331292;22;20379;-70
2021/03/06 11:25:29;;;;;;;9.73;1.75;;;19.90;99.90;;;;;;6306071;22;20008;-70
2021/03/06 11:28:09;;;;;;;10.30;1.50;;;19.90;99.90;;;;;;6331137;22;20014;-70
2021/03/06 11:30:47;;;;;;;9.45;1.70;;;19.80;99.90;;;;;;6306075;22;20078;-70
2021/03/06 11:33:17;;;;;;;11.30;2.00;;;19.90;99.90;;;;;;6303872;22;20045;-70
2021/03/06 11:35:48;;;;;;;9.68;1.67;;;19.90;99.90;;;;;;6305424;22;20060;-70
2021/03/06 11:38:18;;;;;;;20.38;2.67;;;19.90;99.90;;;;;;6354556;22;19987;-65
2021/03/06 11:40:50;;;;;;;8.18;1.45;;;19.90;99.90;;;;;;6333344;22;19987;-66
2021/03/06 11:43:18;;;;;;;10.68;2.15;;;19.80;99.90;;;;;;6333818;22;19991;-65
2021/03/06 11:45:46;;;;;;;7.60;1.55;;;19.80;99.90;;;;;;6333463;22;20003;-66
2021/03/06 11:48:14;;;;;;;7.35;1.33;;;19.80;99.90;;;;;;6333942;22;19991;-65
2021/03/06 11:50:46;;;;;;;9.57;1.30;;;19.70;99.90;;;;;;6333946;22;19999;-66
2021/03/06 11:53:14;;;;;;;9.25;1.30;;;19.80;99.90;;;;;;6333293;22;19991;-66
2021/03/06 11:55:42;;;;;;;7.25;1.83;;;19.80;99.90;;;;;;6334344;22;20064;-66
2021/03/06 11:58:09;;;;;;;9.63;1.58;;;19.90;99.90;;;;;;6335861;22;19988;-66
2021/03/06 12:00:37;;;;;;;4.85;1.45;;;19.90;99.90;;;;;;6334554;22;19998;-66
2021/03/06 12:03:05;;;;;;;11.57;2.00;;;20.00;99.90;;;;;;6335347;22;20047;-66
2021/03/06 12:05:33;;;;;;;13.52;1.35;;;20.00;99.90;;;;;;6334295;22;20023;-66
2021/03/06 12:08:00;;;;;;;11.57;2.28;;;20.00;99.90;;;;;;6334688;22;20209;-66
2021/03/06 12:10:30;;;;;;;9.57;1.95;;;20.00;99.90;;;;;;6333075;22;19992;-66
2021/03/06 12:12:58;;;;;;;9.70;1.45;;;20.00;99.90;;;;;;6333905;22;20033;-65
2021/03/06 12:15:26;;;;;;;9.80;1.30;;;20.00;99.90;;;;;;6334585;22;19991;-65
2021/03/06 12:17:55;;;;;;;12.18;2.08;;;20.00;99.90;;;;;;6361011;22;19988;-65
2021/03/06 12:20:22;;;;;;;10.13;1.83;;;20.00;99.90;;;;;;6359686;22;19999;-66
2021/03/06 12:22:50;;;;;;;10.55;2.08;;;20.00;99.90;;;;;;6334955;22;19999;-66
2021/03/06 12:25:17;;;;;;;9.60;2.50;;;20.10;99.90;;;;;;6334138;22;20047;-66
2021/03/06 12:27:45;;;;;;;9.48;1.83;;;20.10;99.90;;;;;;6334725;22;19987;-65
2021/03/06 12:30:15;;;;;;;9.70;1.73;;;20.00;99.90;;;;;;6334080;22;20022;-66
2021/03/06 12:32:44;;;;;;;8.52;1.67;;;19.80;99.90;;;;;;6334843;22;20012;-66
2021/03/06 12:35:12;;;;;;;10.35;2.08;;;19.80;99.90;;;;;;6334671;22;20051;-66
2021/03/06 12:37:39;;;;;;;11.93;2.63;;;19.70;99.90;;;;;;6334150;22;20035;-66
2021/03/06 12:40:08;;;;;;;8.07;1.52;;;19.60;99.90;;;;;;6334710;22;19992;-66
2021/03/06 12:42:36;;;;;;;12.73;2.28;;;19.60;99.90;;;;;;6335339;22;19988;-66
2021/03/06 12:45:05;;;;;;;10.20;2.38;;;19.50;99.90;;;;;;6334862;22;19988;-66
2021/03/06 12:47:33;;;;;;;13.38;2.28;;;19.60;99.90;;;;;;6334692;22;19987;-66
2021/03/06 12:50:00;;;;;;;10.05;2.00;;;19.70;99.90;;;;;;6333610;22;20046;-66
2021/03/06 12:52:28;;;;;;;11.00;2.63;;;19.60;99.90;;;;;;6334114;22;20003;-66
2021/03/06 12:54:56;;;;;;;11.02;2.58;;;19.60;99.90;;;;;;6334023;22;20004;-66
2021/03/06 12:57:23;;;;;;;7.18;1.67;;;19.60;99.90;;;;;;6334060;22;19999;-66
2021/03/06 12:59:51;;;;;;;11.57;1.90;;;19.60;99.90;;;;;;6333024;22;20006;-66
2021/03/06 13:02:18;;;;;;;9.77;1.75;;;19.60;99.90;;;;;;6334707;22;20010;-66
2021/03/06 13:04:45;;;;;;;12.07;2.28;;;19.60;99.90;;;;;;6334658;22;20039;-66